createdAt,value
2022-10-04T00:04:45.592Z,6.28
2022-10-04T00:09:53.810Z,6.27
2022-10-04T00:14:58.991Z,6.30
2022-10-04T00:20:00.946Z,6.13
2022-10-04T00:25:33.556Z,6.10
2022-10-04T00:30:37.770Z,6.14
2022-10-04T00:35:49.398Z,6.21
2022-10-04T00:41:06.106Z,6.16
2022-10-04T00:46:13.488Z,5.98
2022-10-04T00:51:43.954Z,5.99
2022-10-04T00:57:16.938Z,6.10
2022-10-04T01:02:25.879Z,6.11
2022-10-04T01:07:32.690Z,6.26
2022-10-04T01:12:45.295Z,5.99
2022-10-04T01:18:50.483Z,5.86
2022-10-04T01:24:24.339Z,5.94
2022-10-04T01:29:27.615Z,6.02
2022-10-04T01:34:29.481Z,5.86
2022-10-04T01:39:31.136Z,5.95
2022-10-04T01:44:47.470Z,5.94
2022-10-04T01:49:51.198Z,5.94
2022-10-04T01:55:02.094Z,5.73
2022-10-04T02:00:07.557Z,5.53
2022-10-04T02:05:12.277Z,5.65
2022-10-04T02:10:19.101Z,5.79
2022-10-04T02:15:24.465Z,5.74
2022-10-04T02:20:27.126Z,5.77
2022-10-04T02:25:28.594Z,5.90
2022-10-04T02:30:36.204Z,5.92
2022-10-04T02:35:46.065Z,5.89
2022-10-04T02:41:01.651Z,5.95
2022-10-04T02:46:13.490Z,5.99
2022-10-04T02:51:32.647Z,5.93
2022-10-04T02:56:36.204Z,5.90
2022-10-04T03:01:56.601Z,5.89
2022-10-04T03:07:01.096Z,5.68
2022-10-04T03:12:04.021Z,5.53
2022-10-04T03:17:06.615Z,5.63
2022-10-04T03:22:12.099Z,5.76
2022-10-04T03:27:21.210Z,5.80
2022-10-04T03:32:22.130Z,5.83
2022-10-04T03:37:25.261Z,5.87
2022-10-04T03:42:31.380Z,5.87
2022-10-04T03:47:36.591Z,5.93
2022-10-04T03:52:47.886Z,5.99
2022-10-04T03:57:48.806Z,6.03
2022-10-04T04:02:57.695Z,6.00
2022-10-04T04:08:27.914Z,6.04
2022-10-04T04:13:44.845Z,6.09
2022-10-04T04:18:48.347Z,6.12
2022-10-04T04:24:02.707Z,6.18
2022-10-04T04:29:33.177Z,6.24
2022-10-04T04:34:49.694Z,6.06
2022-10-04T04:39:54.552Z,6.07
2022-10-04T04:45:13.801Z,6.11
2022-10-04T04:50:24.371Z,6.12
2022-10-04T04:56:03.395Z,6.11
2022-10-04T05:01:27.906Z,6.13
2022-10-04T05:06:30.845Z,5.98
2022-10-04T05:11:37.736Z,5.91
2022-10-04T05:16:53.421Z,6.01
2022-10-04T05:21:57.115Z,5.91
2022-10-04T05:27:16.041Z,5.72
2022-10-04T05:32:38.999Z,5.89
2022-10-04T05:38:39.686Z,5.92
2022-10-04T05:43:51.859Z,5.99
2022-10-04T05:48:56.485Z,6.11
2022-10-04T05:54:01.069Z,6.17
2022-10-04T05:59:49.567Z,6.24
2022-10-04T06:05:15.073Z,6.27
2022-10-04T06:10:36.401Z,6.13
2022-10-04T06:16:41.636Z,6.15
2022-10-04T06:28:35.632Z,6.36
2022-10-04T06:34:01.663Z,6.57
2022-10-04T06:39:21.535Z,6.66
2022-10-04T06:46:06.682Z,6.84
2022-10-04T06:51:33.942Z,7.09
2022-10-04T06:57:21.471Z,7.33
2022-10-04T07:02:34.967Z,7.46
2022-10-04T07:07:46.792Z,7.76
2022-10-04T07:13:03.832Z,8.14
2022-10-04T07:18:13.087Z,8.52
2022-10-04T07:23:27.570Z,8.88
2022-10-04T07:28:52.540Z,9.03
2022-10-04T07:34:03.034Z,8.91
2022-10-04T07:39:09.960Z,8.82
2022-10-04T07:44:19.901Z,8.92
2022-10-04T07:49:22.489Z,9.19
2022-10-04T07:54:47.477Z,9.44
2022-10-04T08:00:05.579Z,9.50
2022-10-04T08:05:23.719Z,9.65
2022-10-04T08:10:47.555Z,9.71
2022-10-04T08:15:51.788Z,9.82
2022-10-04T08:21:02.024Z,10.01
2022-10-04T08:26:24.559Z,10.06
2022-10-04T08:31:54.628Z,9.98
2022-10-04T08:37:35.404Z,10.34
2022-10-04T08:45:37.899Z,10.78
2022-10-04T08:53:42.195Z,11.06
2022-10-04T09:00:32.849Z,11.37
2022-10-04T09:07:47.568Z,11.03
2022-10-04T09:15:51.897Z,11.41
2022-10-04T09:21:41.600Z,11.96
2022-10-04T09:27:01.250Z,11.97
2022-10-04T09:32:41.358Z,11.61
2022-10-04T09:41:14.104Z,11.94
2022-10-04T09:50:18.057Z,12.40
2022-10-04T09:58:03.347Z,12.72
2022-10-04T10:07:20.882Z,12.76
2022-10-04T10:12:57.716Z,12.74
2022-10-04T10:18:26.135Z,13.16
2022-10-04T10:24:04.734Z,13.06
2022-10-04T10:29:37.928Z,13.09
2022-10-04T10:36:36.247Z,12.98
2022-10-04T10:45:37.353Z,12.75
2022-10-04T10:50:59.298Z,13.25
2022-10-04T11:03:13.658Z,13.36
2022-10-04T11:12:06.671Z,13.99
2022-10-04T11:24:08.403Z,14.63
2022-10-04T11:29:35.150Z,14.75
2022-10-04T11:40:01.044Z,14.31
2022-10-04T11:47:28.111Z,14.02
2022-10-04T11:54:15.832Z,13.91
2022-10-04T12:00:20.316Z,13.78
2022-10-04T12:06:00.960Z,13.16
2022-10-04T12:12:55.019Z,13.35
2022-10-04T12:19:02.427Z,13.81
2022-10-04T12:32:30.041Z,14.03
2022-10-04T12:38:08.001Z,13.78
2022-10-04T12:43:56.561Z,14.32
2022-10-04T12:51:04.461Z,14.09
2022-10-04T13:00:44.742Z,14.26
2022-10-04T13:06:03.933Z,14.48
2022-10-04T13:13:16.107Z,14.62
2022-10-04T13:19:53.021Z,14.84
2022-10-04T13:25:19.836Z,14.75
2022-10-04T13:30:23.441Z,15.09
2022-10-04T13:38:15.518Z,15.47
2022-10-04T13:47:16.924Z,15.47
2022-10-04T13:53:03.913Z,15.97
2022-10-04T14:02:26.859Z,16.00
2022-10-04T14:11:59.487Z,15.99
2022-10-04T14:18:41.440Z,16.07
2022-10-04T14:24:34.254Z,15.65
2022-10-04T14:30:16.680Z,15.64
2022-10-04T14:35:25.295Z,16.00
2022-10-04T14:42:06.795Z,16.11
2022-10-04T14:47:28.011Z,16.09
2022-10-04T14:52:57.114Z,15.79
2022-10-04T14:58:45.929Z,15.81
2022-10-04T15:06:57.641Z,16.12
2022-10-04T15:12:36.409Z,15.83
2022-10-04T15:18:28.459Z,15.95
2022-10-04T15:23:35.119Z,15.25
2022-10-04T15:33:54.998Z,14.95
2022-10-04T15:39:04.100Z,14.86
2022-10-04T15:44:28.844Z,14.86
2022-10-04T15:52:57.348Z,14.74
2022-10-04T16:01:12.081Z,14.68
2022-10-04T16:06:27.315Z,14.39
2022-10-04T16:11:58.499Z,14.13
2022-10-04T16:17:31.791Z,14.07
2022-10-04T16:22:34.495Z,13.83
2022-10-04T16:27:49.704Z,13.67
2022-10-04T16:33:26.174Z,13.63
2022-10-04T16:38:32.774Z,13.52
2022-10-04T16:43:37.701Z,13.37
2022-10-04T16:49:16.007Z,13.08
2022-10-04T16:54:41.571Z,13.09
2022-10-04T16:59:46.723Z,13.07
2022-10-04T17:06:13.485Z,13.08
2022-10-04T17:11:33.075Z,12.87
2022-10-04T17:16:45.665Z,12.73
2022-10-04T17:22:06.019Z,12.54
2022-10-04T17:28:09.432Z,12.43
2022-10-04T17:33:25.384Z,12.25
2022-10-04T17:39:03.761Z,11.70
2022-10-04T17:46:45.896Z,11.62
2022-10-04T17:52:08.832Z,11.42
2022-10-04T17:57:29.372Z,11.19
2022-10-04T18:04:29.586Z,11.37
2022-10-04T18:09:35.606Z,11.35
2022-10-04T18:14:56.954Z,11.19
2022-10-04T18:20:13.643Z,10.96
2022-10-04T18:25:21.768Z,10.97
2022-10-04T18:30:23.001Z,10.97
2022-10-04T18:35:28.157Z,10.96
2022-10-04T18:40:41.224Z,10.96
2022-10-04T18:45:59.680Z,10.78
2022-10-04T18:51:26.167Z,10.49
2022-10-04T18:56:33.759Z,10.31
2022-10-04T19:15:12.894Z,10.34
2022-10-04T19:20:20.785Z,10.26
2022-10-04T19:26:03.098Z,10.16
2022-10-04T19:31:37.864Z,10.06
2022-10-04T19:36:59.469Z,9.86
2022-10-04T19:43:42.615Z,9.87
2022-10-04T19:48:49.127Z,9.89
2022-10-04T19:53:57.174Z,9.92
2022-10-04T19:59:09.773Z,9.83
2022-10-04T20:04:33.086Z,9.82
2022-10-04T20:11:13.653Z,9.79
2022-10-04T20:17:02.110Z,9.79
2022-10-04T20:23:03.835Z,9.74
2022-10-04T20:28:04.750Z,9.67
2022-10-04T20:33:05.664Z,9.73
2022-10-04T20:38:31.684Z,9.70
2022-10-04T20:43:53.036Z,9.64
2022-10-04T20:48:55.051Z,9.46
2022-10-04T20:53:55.882Z,9.42
2022-10-04T20:58:59.514Z,9.39
2022-10-04T21:04:33.457Z,9.39
2022-10-04T21:09:36.316Z,9.30
2022-10-04T21:14:37.269Z,9.25
2022-10-04T21:19:44.530Z,9.26
2022-10-04T21:25:05.326Z,9.25
2022-10-04T21:30:13.138Z,9.37
2022-10-04T21:35:13.964Z,9.50
2022-10-04T21:40:15.317Z,9.20
2022-10-04T21:45:16.162Z,9.30
2022-10-04T21:50:16.943Z,9.34
2022-10-04T21:55:17.709Z,9.38
2022-10-04T22:00:18.671Z,9.36
2022-10-04T22:05:19.413Z,9.29
2022-10-04T22:10:20.308Z,9.28
2022-10-04T22:15:23.090Z,9.32
2022-10-04T22:20:24.312Z,9.24
2022-10-04T22:25:26.701Z,9.26
2022-10-04T22:30:30.378Z,9.25
2022-10-04T22:35:33.012Z,9.16
2022-10-04T22:40:33.835Z,9.19
2022-10-04T22:45:35.935Z,9.18
2022-10-04T22:50:37.499Z,8.94
2022-10-04T22:55:40.099Z,8.98
2022-10-04T23:00:42.348Z,8.97
2022-10-04T23:05:44.476Z,8.96
2022-10-04T23:10:45.405Z,8.90
2022-10-04T23:15:46.317Z,8.92
2022-10-04T23:20:53.882Z,8.90
2022-10-04T23:25:55.202Z,8.73
2022-10-04T23:31:11.627Z,8.69
2022-10-04T23:36:13.541Z,8.54
2022-10-04T23:41:16.612Z,8.45
2022-10-04T23:46:19.024Z,8.58
2022-10-04T23:51:20.691Z,8.58
2022-10-04T23:56:24.327Z,8.44
